SULAYMANIYAH INTERNATIONAL AIRPORT
  • SulyAir
  • SulyAir
1 1
Arrival

ArrivalsMore >>

Departure

DeparturesMore >>

TAF

TAF ORSU 220500Z 2206/2306 24007KT 9999 FEW045
BECMG 2215/2217 30005KT 8000 NSC=

METARs

METAR ORSU 220500Z 31005KT 8000 NSC M02/M03 Q1021=